KGNV/GNV METAR and TAF weather

Enter ICAO airport designator
Station Type Date Time Source
KGNV METAR 2020/01/17 13:53 UTC NOAA

KGNV 171353Z 05012G17KT 10SM CLR 16/07 A3044 RMK AO2 SLP306 T01560072


Station Type Date Time Source
KGNV Decoded METAR 2020/01/17 13:53 UTC NOAA

GAINESVILLE REGIONAL AIRPORT , FL, United States (KGNV) 29-42N 082-17W 45M
Jan 17, 2020 - 08:53 AM EST / 2020.01.17 1353 UTC
Wind: from the NE (050 degrees) at 14 MPH (12 KT) gusting to 20 MPH (17 KT):0
Visibility: 10 mile(s):0
Sky conditions: clear
Temperature: 60.1 F (15.6 C)
Dew Point: 45.0 F (7.2 C)
Relative Humidity: 57%
Pressure (altimeter): 30.44 in. Hg (1030 hPa)
ob: KGNV 171353Z 05012G17KT 10SM CLR 16/07 A3044 RMK AO2 SLP306 T01560072
cycle: 14

Station Type Date Time Source
KGNV TAF 2020/01/17 12:22 UTC NOAA

TAF KGNV 171120Z 1712/1812 01005KT P6SM BKN250
FM171400 04012G18KT P6SM FEW035 SCT250
FM172000 06010KT P6SM SCT015 BKN050
FM180000 06009KT P6SM SCT010 BKN040
FM180600 09003KT P6SM BKN035

Example: see airport list